createdAt,value
2023-05-22T00:01:46.967Z,7.25
2023-05-22T00:04:14.013Z,6.70
2023-05-22T00:06:44.017Z,7.00
2023-05-22T00:09:11.272Z,7.78
2023-05-22T00:11:39.666Z,6.82
2023-05-22T00:14:06.663Z,8.18
2023-05-22T00:19:17.192Z,7.20
2023-05-22T00:21:44.994Z,7.68
2023-05-22T00:24:14.461Z,7.20
2023-05-22T00:26:41.517Z,8.73
2023-05-22T00:29:09.484Z,8.32
2023-05-22T00:31:36.881Z,7.32
2023-05-22T00:34:03.936Z,8.90
2023-05-22T00:36:31.044Z,8.63
2023-05-22T00:38:58.166Z,8.50
2023-05-22T00:41:25.562Z,8.02
2023-05-22T00:43:52.764Z,7.45
2023-05-22T00:46:21.747Z,8.35
2023-05-22T00:48:49.433Z,7.60
2023-05-22T00:51:16.704Z,8.30
2023-05-22T00:53:44.557Z,8.50
2023-05-22T00:56:12.657Z,8.55
2023-05-22T00:58:39.854Z,7.45
2023-05-22T01:01:09.726Z,8.25
2023-05-22T01:03:44.784Z,8.70
2023-05-22T01:06:18.066Z,6.85
2023-05-22T01:08:45.576Z,7.90
2023-05-22T01:11:42.104Z,7.07
2023-05-22T01:14:30.870Z,7.45
2023-05-22T01:17:34.930Z,7.68
2023-05-22T01:20:29.552Z,7.30
2023-05-22T01:23:17.977Z,7.22
2023-05-22T01:26:22.383Z,7.20
2023-05-22T01:28:55.456Z,6.43
2023-05-22T01:31:27.621Z,8.48
2023-05-22T01:34:02.108Z,6.07
2023-05-22T01:36:36.109Z,8.18
2023-05-22T01:39:06.356Z,6.30
2023-05-22T01:41:34.628Z,6.88
2023-05-22T01:44:02.639Z,6.65
2023-05-22T01:46:30.415Z,7.68
2023-05-22T01:48:58.200Z,6.63
2023-05-22T01:51:28.060Z,7.93
2023-05-22T01:54:07.730Z,7.10
2023-05-22T01:56:43.686Z,6.65
2023-05-22T01:59:22.810Z,6.95
2023-05-22T02:01:52.188Z,7.75
2023-05-22T02:04:23.272Z,6.88
2023-05-22T02:06:54.144Z,5.68
2023-05-22T02:09:23.679Z,8.15
2023-05-22T02:11:51.522Z,7.95
2023-05-22T02:14:19.979Z,5.68
2023-05-22T02:16:47.776Z,6.10
2023-05-22T02:19:15.481Z,6.65
2023-05-22T02:21:42.871Z,6.18
2023-05-22T02:24:10.629Z,6.30
2023-05-22T02:26:38.310Z,7.40
2023-05-22T02:29:05.433Z,6.00
2023-05-22T02:31:32.465Z,7.07
2023-05-22T02:33:59.553Z,7.55
2023-05-22T02:36:26.707Z,8.48
2023-05-22T02:38:55.542Z,7.32
2023-05-22T02:41:23.784Z,7.97
2023-05-22T02:43:50.800Z,7.57
2023-05-22T02:46:17.791Z,7.05
2023-05-22T02:48:45.718Z,7.95
2023-05-22T02:51:12.672Z,6.82
2023-05-22T02:53:41.524Z,7.22
2023-05-22T02:56:10.785Z,6.90
2023-05-22T02:58:38.414Z,7.25
2023-05-22T03:01:09.330Z,6.80
2023-05-22T03:03:36.781Z,8.23
2023-05-22T03:06:04.335Z,7.53
2023-05-22T03:08:32.198Z,6.57
2023-05-22T03:11:00.546Z,7.05
2023-05-22T03:13:27.499Z,5.82
2023-05-22T03:15:54.738Z,7.25
2023-05-22T03:18:21.980Z,7.00
2023-05-22T03:20:48.912Z,6.95
2023-05-22T03:23:15.872Z,7.03
2023-05-22T03:25:43.010Z,6.78
2023-05-22T03:28:10.021Z,6.45
2023-05-22T03:30:37.275Z,7.28
2023-05-22T03:33:04.541Z,6.05
2023-05-22T03:35:31.696Z,6.10
2023-05-22T03:37:58.852Z,5.57
2023-05-22T03:40:26.080Z,5.03
2023-05-22T03:42:53.285Z,5.75
2023-05-22T03:45:20.276Z,6.07
2023-05-22T03:47:47.462Z,5.47
2023-05-22T03:50:14.517Z,4.88
2023-05-22T03:52:41.453Z,5.57
2023-05-22T03:55:09.127Z,6.68
2023-05-22T03:57:36.111Z,6.90
2023-05-22T04:00:09.974Z,5.13
2023-05-22T04:02:39.191Z,6.68
2023-05-22T04:05:10.124Z,4.75
2023-05-22T04:07:37.329Z,4.05
2023-05-22T04:10:05.502Z,3.05
2023-05-22T04:12:32.561Z,3.72
2023-05-22T04:14:59.700Z,1.95
2023-05-22T04:17:32.576Z,1.70
2023-05-22T04:20:00.450Z,1.55
2023-05-22T04:22:27.926Z,1.58
2023-05-22T04:24:54.907Z,1.38
2023-05-22T04:27:22.984Z,1.92
2023-05-22T04:29:52.663Z,1.75
2023-05-22T04:32:21.817Z,1.77
2023-05-22T04:34:52.066Z,1.52
2023-05-22T04:37:20.487Z,1.88
2023-05-22T04:39:48.059Z,1.70
2023-05-22T04:42:16.188Z,2.35
2023-05-22T04:44:43.759Z,2.70
2023-05-22T04:47:11.666Z,3.50
2023-05-22T04:49:39.329Z,3.28
2023-05-22T04:52:07.331Z,2.88
2023-05-22T04:54:34.673Z,2.50
2023-05-22T04:57:04.576Z,2.70
2023-05-22T04:59:40.333Z,4.15
2023-05-22T05:02:07.598Z,2.60
2023-05-22T05:04:34.548Z,3.33
2023-05-22T05:07:02.618Z,2.75
2023-05-22T05:09:29.828Z,3.22
2023-05-22T05:11:57.009Z,2.70
2023-05-22T05:14:24.390Z,3.13
2023-05-22T05:16:52.053Z,3.25
2023-05-22T05:19:21.797Z,3.17
2023-05-22T05:21:52.555Z,2.95
2023-05-22T05:24:19.563Z,2.92
2023-05-22T05:26:47.795Z,2.83
2023-05-22T05:29:15.049Z,2.78
2023-05-22T05:31:42.468Z,3.05
2023-05-22T05:34:09.839Z,2.45
2023-05-22T05:36:37.514Z,2.58
2023-05-22T05:39:04.935Z,2.80
2023-05-22T05:41:32.109Z,3.53
2023-05-22T05:44:00.617Z,3.45
2023-05-22T05:46:27.810Z,3.28
2023-05-22T05:48:54.866Z,2.90
2023-05-22T05:51:22.388Z,3.83
2023-05-22T05:53:49.704Z,3.30
2023-05-22T05:56:16.756Z,3.40
2023-05-22T05:58:44.066Z,2.80
2023-05-22T06:01:12.118Z,3.25
2023-05-22T06:03:39.415Z,2.63
2023-05-22T06:06:07.395Z,2.85
2023-05-22T06:08:34.705Z,3.00
2023-05-22T06:11:02.313Z,2.72
2023-05-22T06:13:29.488Z,3.33
2023-05-22T06:15:58.693Z,2.78
2023-05-22T06:18:27.517Z,2.90
2023-05-22T06:20:54.564Z,2.60
2023-05-22T06:23:21.802Z,2.97
2023-05-22T06:25:48.921Z,2.50
2023-05-22T06:28:15.950Z,2.50
2023-05-22T06:30:43.094Z,2.95
2023-05-22T06:33:10.455Z,2.88
2023-05-22T06:35:37.708Z,2.50
2023-05-22T06:38:04.684Z,2.35
2023-05-22T06:40:31.868Z,3.47
2023-05-22T06:43:01.800Z,2.53
2023-05-22T06:45:28.808Z,2.30
2023-05-22T06:47:55.941Z,2.92
2023-05-22T06:50:23.047Z,3.40
2023-05-22T06:52:50.204Z,2.22
2023-05-22T06:55:17.342Z,2.65
2023-05-22T06:57:44.583Z,2.45
2023-05-22T07:00:13.155Z,2.30
2023-05-22T07:02:40.678Z,2.47
2023-05-22T07:05:07.996Z,2.30
2023-05-22T07:07:35.130Z,2.80
2023-05-22T07:10:02.133Z,2.28
2023-05-22T07:12:29.808Z,2.25
2023-05-22T07:14:58.108Z,2.83
2023-05-22T07:17:25.181Z,2.78
2023-05-22T07:19:52.183Z,2.22
2023-05-22T07:22:19.214Z,2.10
2023-05-22T07:24:47.581Z,2.03
2023-05-22T07:27:15.037Z,2.25
2023-05-22T07:29:41.979Z,2.20
2023-05-22T07:32:09.166Z,2.28
2023-05-22T07:34:36.377Z,2.17
2023-05-22T07:37:12.509Z,2.40
2023-05-22T07:39:39.524Z,2.33
2023-05-22T07:42:07.131Z,2.20
2023-05-22T07:44:34.545Z,2.80
2023-05-22T07:47:01.528Z,2.67
2023-05-22T07:49:28.533Z,2.65
2023-05-22T07:51:55.790Z,2.35
2023-05-22T07:54:22.817Z,2.95
2023-05-22T07:56:50.382Z,3.13
2023-05-22T07:59:19.731Z,2.13
2023-05-22T08:01:47.194Z,2.30
2023-05-22T08:04:14.394Z,1.70
2023-05-22T08:06:41.840Z,2.10
2023-05-22T08:09:09.609Z,1.88
2023-05-22T08:11:39.672Z,2.08
2023-05-22T08:14:07.823Z,2.13
2023-05-22T08:16:35.448Z,2.05
2023-05-22T08:19:02.896Z,2.08
2023-05-22T08:21:30.099Z,1.85
2023-05-22T08:23:57.145Z,3.22
2023-05-22T08:26:24.301Z,1.88
2023-05-22T08:28:52.460Z,2.97
2023-05-22T08:31:19.592Z,2.45
2023-05-22T08:33:46.753Z,2.28
2023-05-22T08:36:14.900Z,2.13
2023-05-22T08:38:42.012Z,1.80
2023-05-22T08:41:09.629Z,3.00
2023-05-22T08:43:37.187Z,4.55
2023-05-22T08:46:06.299Z,30.15
2023-05-22T08:48:33.779Z,17.50
2023-05-22T08:51:06.191Z,19.02
2023-05-22T08:53:37.712Z,8.00
2023-05-22T08:56:09.005Z,5.93
2023-05-22T08:58:37.828Z,4.13
2023-05-22T09:01:06.442Z,3.17
2023-05-22T09:03:35.118Z,2.88
2023-05-22T09:06:02.560Z,2.75
2023-05-22T09:08:29.618Z,3.28
2023-05-22T09:10:57.177Z,2.13
2023-05-22T09:13:29.479Z,2.20
2023-05-22T09:16:13.174Z,1.80
2023-05-22T09:18:41.428Z,2.97
2023-05-22T09:21:21.463Z,1.90
2023-05-22T09:23:59.436Z,1.65
2023-05-22T09:26:29.748Z,2.05
2023-05-22T09:29:00.360Z,2.75
2023-05-22T09:31:29.470Z,1.40
2023-05-22T09:33:56.904Z,2.10
2023-05-22T09:36:34.312Z,1.98
2023-05-22T09:39:02.450Z,1.60
2023-05-22T09:41:30.717Z,1.80
2023-05-22T09:43:58.737Z,4.63
2023-05-22T09:46:27.487Z,2.63
2023-05-22T09:48:54.974Z,2.42
2023-05-22T09:51:26.685Z,2.22
2023-05-22T09:54:02.246Z,1.80
2023-05-22T09:56:39.378Z,1.98
2023-05-22T09:59:09.902Z,2.97
2023-05-22T10:01:40.104Z,1.60
2023-05-22T10:04:12.617Z,1.92
2023-05-22T10:06:41.013Z,1.60
2023-05-22T10:09:15.868Z,2.17
2023-05-22T10:11:45.471Z,2.30
2023-05-22T10:14:13.607Z,2.13
2023-05-22T10:16:41.772Z,1.73
2023-05-22T10:19:10.024Z,2.08
2023-05-22T10:21:37.417Z,1.50
2023-05-22T10:24:06.283Z,1.55
2023-05-22T10:26:33.652Z,1.75
2023-05-22T10:29:12.266Z,1.80
2023-05-22T10:31:57.963Z,1.80
2023-05-22T10:34:34.590Z,1.88
2023-05-22T10:37:26.604Z,2.00
2023-05-22T10:40:07.647Z,1.52
2023-05-22T10:42:37.304Z,1.65
2023-05-22T10:45:07.286Z,1.50
2023-05-22T10:47:34.651Z,1.63
2023-05-22T10:50:09.952Z,1.42
2023-05-22T10:52:37.994Z,2.35
2023-05-22T10:55:10.443Z,1.50
2023-05-22T10:57:39.521Z,1.77
2023-05-22T11:00:08.107Z,1.80
2023-05-22T11:02:42.727Z,1.60
2023-05-22T11:05:21.857Z,1.70
2023-05-22T11:07:49.539Z,2.30
2023-05-22T11:10:27.056Z,2.10
2023-05-22T11:13:11.286Z,2.40
2023-05-22T11:15:45.919Z,1.70
2023-05-22T11:18:14.753Z,2.35
2023-05-22T11:20:42.313Z,1.95
2023-05-22T11:23:11.227Z,1.80
2023-05-22T11:25:40.619Z,1.60
2023-05-22T11:28:10.815Z,1.90
2023-05-22T11:30:38.980Z,1.80
2023-05-22T11:33:09.293Z,1.92
2023-05-22T11:35:36.807Z,1.77
2023-05-22T11:38:07.228Z,2.50
2023-05-22T11:40:34.426Z,2.30
2023-05-22T11:43:01.962Z,1.73
2023-05-22T11:45:29.241Z,2.42
2023-05-22T11:47:56.385Z,1.55
2023-05-22T11:50:40.337Z,1.75
2023-05-22T11:53:08.711Z,1.77
2023-05-22T11:55:36.023Z,1.83
2023-05-22T11:58:03.051Z,1.70
2023-05-22T12:00:31.586Z,1.92
2023-05-22T12:02:59.414Z,2.10
2023-05-22T12:05:26.734Z,1.60
2023-05-22T12:07:53.833Z,2.15
2023-05-22T12:10:20.995Z,1.55
2023-05-22T12:12:48.336Z,1.65
2023-05-22T12:15:20.409Z,1.50
2023-05-22T12:17:47.946Z,1.50
2023-05-22T12:20:15.001Z,1.65
2023-05-22T12:22:43.639Z,1.80
2023-05-22T12:25:25.063Z,1.52
2023-05-22T12:27:52.182Z,1.75
2023-05-22T12:30:19.794Z,1.60
2023-05-22T12:32:51.587Z,2.08
2023-05-22T12:35:19.446Z,1.63
2023-05-22T12:37:51.088Z,1.67
2023-05-22T12:40:18.656Z,1.20
2023-05-22T12:42:45.903Z,2.03
2023-05-22T12:45:14.286Z,1.40
2023-05-22T12:47:41.459Z,1.48
2023-05-22T12:50:09.186Z,1.67
2023-05-22T12:52:37.400Z,1.65
2023-05-22T12:55:04.766Z,1.60
2023-05-22T12:57:31.930Z,1.52
2023-05-22T12:59:58.962Z,1.48
2023-05-22T13:02:26.504Z,1.50
2023-05-22T13:04:53.574Z,2.17
2023-05-22T13:07:20.629Z,1.70
2023-05-22T13:09:47.633Z,1.85
2023-05-22T13:12:14.701Z,1.80
2023-05-22T13:14:41.726Z,1.60
2023-05-22T13:17:08.771Z,1.73
2023-05-22T13:19:35.894Z,1.98
2023-05-22T13:22:03.200Z,2.00
2023-05-22T13:24:30.495Z,1.52
2023-05-22T13:26:57.520Z,1.50
2023-05-22T13:29:24.571Z,1.70
2023-05-22T13:31:51.705Z,1.75
2023-05-22T13:34:18.833Z,1.50
2023-05-22T13:36:46.633Z,1.80
2023-05-22T13:39:13.713Z,1.92
2023-05-22T13:41:40.846Z,2.10
2023-05-22T13:44:07.881Z,2.10
2023-05-22T13:46:34.989Z,2.25
2023-05-22T13:49:02.268Z,1.77
2023-05-22T13:51:29.380Z,1.88
2023-05-22T13:53:56.398Z,2.28
2023-05-22T13:56:24.328Z,2.15
2023-05-22T13:58:51.330Z,1.83
2023-05-22T14:01:18.477Z,2.05
2023-05-22T14:03:45.686Z,2.10
2023-05-22T14:06:12.777Z,2.33
2023-05-22T14:08:39.777Z,1.92
2023-05-22T14:11:06.986Z,2.22
2023-05-22T14:13:35.078Z,1.70
2023-05-22T14:16:02.410Z,1.70
2023-05-22T14:18:29.385Z,1.80
2023-05-22T14:20:56.894Z,1.77
2023-05-22T14:23:24.100Z,2.00
2023-05-22T14:25:51.302Z,2.13
2023-05-22T14:28:18.471Z,2.17
2023-05-22T14:30:45.638Z,1.83
2023-05-22T14:33:12.770Z,1.63
2023-05-22T14:35:39.937Z,1.90
2023-05-22T14:38:07.078Z,1.40
2023-05-22T14:40:34.316Z,1.70
2023-05-22T14:43:01.319Z,1.60
2023-05-22T14:45:28.281Z,2.13
2023-05-22T14:47:55.627Z,1.95
2023-05-22T14:50:22.918Z,2.40
2023-05-22T14:52:50.380Z,1.92
2023-05-22T14:55:18.006Z,2.67
2023-05-22T14:57:45.075Z,2.08
2023-05-22T15:00:13.049Z,1.83
2023-05-22T15:02:41.218Z,2.05
2023-05-22T15:05:08.830Z,1.90
2023-05-22T15:07:43.874Z,2.58
2023-05-22T15:10:12.566Z,1.98
2023-05-22T15:12:39.956Z,2.00
2023-05-22T15:15:07.476Z,1.83
2023-05-22T15:17:34.493Z,2.00
2023-05-22T15:20:01.614Z,2.10
2023-05-22T15:22:29.881Z,2.35
2023-05-22T15:25:12.004Z,1.73
2023-05-22T15:27:39.990Z,1.90
2023-05-22T15:30:09.830Z,2.00
2023-05-22T15:32:37.675Z,2.08
2023-05-22T15:35:05.936Z,2.25
2023-05-22T15:37:34.264Z,2.00
2023-05-22T15:40:03.832Z,2.00
2023-05-22T15:42:31.116Z,2.50
2023-05-22T15:44:59.912Z,2.00
2023-05-22T15:47:27.114Z,2.15
2023-05-22T15:49:54.237Z,2.10
2023-05-22T15:52:23.486Z,1.98
2023-05-22T15:54:50.615Z,1.92
2023-05-22T15:57:17.972Z,2.22
2023-05-22T15:59:47.531Z,1.63
2023-05-22T16:02:14.773Z,1.88
2023-05-22T16:04:41.900Z,2.00
2023-05-22T16:07:08.840Z,1.70
2023-05-22T16:09:36.348Z,1.88
2023-05-22T16:12:03.995Z,1.85
2023-05-22T16:14:31.899Z,1.88
2023-05-22T16:16:59.038Z,2.10
2023-05-22T16:19:29.143Z,1.92
2023-05-22T16:21:56.572Z,1.40
2023-05-22T16:24:24.220Z,1.80
2023-05-22T16:26:51.389Z,1.75
2023-05-22T16:29:22.584Z,1.63
2023-05-22T16:31:50.002Z,2.30
2023-05-22T16:34:17.803Z,1.75
2023-05-22T16:36:44.986Z,1.50
2023-05-22T16:39:12.090Z,1.95
2023-05-22T16:41:39.323Z,2.15
2023-05-22T16:44:06.479Z,1.75
2023-05-22T16:46:33.677Z,2.05
2023-05-22T16:49:00.858Z,2.00
2023-05-22T16:51:27.952Z,2.22
2023-05-22T16:53:54.931Z,1.90
2023-05-22T16:56:23.061Z,2.08
2023-05-22T16:58:50.092Z,2.08
2023-05-22T17:01:17.258Z,3.47
2023-05-22T17:03:45.242Z,2.13
2023-05-22T17:06:12.376Z,2.35
2023-05-22T17:08:39.534Z,1.90
2023-05-22T17:11:06.604Z,2.53
2023-05-22T17:13:33.608Z,2.30
2023-05-22T17:16:00.768Z,2.55
2023-05-22T17:18:28.359Z,2.40
2023-05-22T17:20:55.890Z,2.25
2023-05-22T17:23:22.922Z,2.15
2023-05-22T17:25:50.838Z,1.98
2023-05-22T17:28:17.871Z,2.15
2023-05-22T17:30:46.195Z,1.98
2023-05-22T17:33:14.102Z,2.70
2023-05-22T17:35:41.860Z,2.10
2023-05-22T17:38:08.885Z,2.10
2023-05-22T17:40:44.997Z,1.90
2023-05-22T17:43:13.182Z,2.78
2023-05-22T17:45:40.435Z,2.50
2023-05-22T17:48:08.179Z,1.88
2023-05-22T17:50:35.429Z,2.50
2023-05-22T17:53:02.493Z,1.73
2023-05-22T17:55:29.518Z,1.90
2023-05-22T17:57:56.721Z,1.55
2023-05-22T18:00:24.046Z,1.83
2023-05-22T18:02:51.132Z,2.10
2023-05-22T18:05:18.252Z,1.85
2023-05-22T18:07:45.270Z,1.90
2023-05-22T18:10:12.278Z,2.28
2023-05-22T18:12:39.396Z,2.33
2023-05-22T18:15:09.721Z,2.38
2023-05-22T18:17:36.992Z,2.47
2023-05-22T18:20:07.454Z,2.50
2023-05-22T18:22:38.703Z,2.50
2023-05-22T18:25:07.336Z,3.00
2023-05-22T18:27:35.509Z,2.33
2023-05-22T18:30:03.886Z,3.15
2023-05-22T18:32:31.432Z,2.28
2023-05-22T18:35:04.761Z,2.88
2023-05-22T18:37:32.466Z,2.33
2023-05-22T18:39:59.532Z,2.35
2023-05-22T18:42:26.528Z,2.65
2023-05-22T18:44:53.700Z,2.65
2023-05-22T18:47:20.658Z,3.25
2023-05-22T18:49:47.681Z,2.90
2023-05-22T18:52:14.906Z,2.17
2023-05-22T18:54:41.974Z,2.70
2023-05-22T18:57:09.007Z,3.30
2023-05-22T18:59:37.475Z,2.17
2023-05-22T19:02:04.695Z,2.60
2023-05-22T19:04:31.774Z,2.67
2023-05-22T19:06:59.183Z,2.58
2023-05-22T19:09:26.216Z,2.28
2023-05-22T19:11:53.216Z,2.50
2023-05-22T19:14:20.386Z,2.47
2023-05-22T19:16:47.366Z,3.00
2023-05-22T19:19:15.190Z,2.22
2023-05-22T19:21:42.398Z,2.08
2023-05-22T19:24:09.549Z,2.10
2023-05-22T19:26:36.580Z,2.95
2023-05-22T19:29:03.614Z,2.30
2023-05-22T19:31:30.899Z,3.00
2023-05-22T19:33:57.963Z,2.58
2023-05-22T19:36:25.037Z,2.67
2023-05-22T19:38:53.694Z,2.60
2023-05-22T19:41:21.714Z,2.65
2023-05-22T19:43:48.826Z,2.45
2023-05-22T19:46:15.797Z,2.53
2023-05-22T19:48:42.815Z,3.85
2023-05-22T19:51:09.856Z,2.80
2023-05-22T19:53:37.148Z,2.05
2023-05-22T19:56:04.263Z,2.22
2023-05-22T19:58:31.494Z,2.40
2023-05-22T20:00:58.665Z,2.40
2023-05-22T20:03:26.520Z,2.90
2023-05-22T20:05:54.057Z,2.50
2023-05-22T20:08:25.713Z,2.53
2023-05-22T20:10:52.860Z,2.17
2023-05-22T20:13:19.889Z,2.78
2023-05-22T20:15:51.543Z,2.28
2023-05-22T20:18:18.685Z,2.95
2023-05-22T20:20:45.852Z,3.08
2023-05-22T20:23:12.834Z,2.63
2023-05-22T20:25:40.068Z,3.40
2023-05-22T20:28:07.314Z,2.88
2023-05-22T20:30:34.270Z,2.60
2023-05-22T20:33:01.298Z,2.65
2023-05-22T20:35:30.582Z,2.47
2023-05-22T20:38:03.213Z,2.30
2023-05-22T20:40:32.538Z,2.13
2023-05-22T20:43:02.497Z,2.85
2023-05-22T20:45:30.867Z,2.40
2023-05-22T20:47:58.056Z,2.60
2023-05-22T20:50:25.187Z,2.75
2023-05-22T20:52:52.867Z,2.90
2023-05-22T20:55:19.858Z,2.45
2023-05-22T20:57:47.069Z,2.53
2023-05-22T21:00:14.488Z,3.08
2023-05-22T21:02:41.679Z,2.58
2023-05-22T21:05:09.172Z,3.03
2023-05-22T21:07:36.252Z,2.53
2023-05-22T21:10:03.702Z,2.25
2023-05-22T21:12:30.710Z,2.88
2023-05-22T21:14:57.688Z,2.72
2023-05-22T21:17:26.146Z,2.47
2023-05-22T21:19:53.441Z,3.10
2023-05-22T21:22:20.745Z,2.88
2023-05-22T21:24:48.216Z,2.35
2023-05-22T21:27:15.464Z,4.07
2023-05-22T21:29:42.462Z,2.50
2023-05-22T21:32:09.527Z,2.55
2023-05-22T21:34:36.562Z,2.90
2023-05-22T21:37:03.806Z,2.30
2023-05-22T21:39:30.768Z,3.38
2023-05-22T21:41:57.868Z,3.42
2023-05-22T21:44:24.967Z,2.38
2023-05-22T21:46:51.946Z,2.70
2023-05-22T21:49:18.931Z,2.40
2023-05-22T21:51:45.898Z,2.42
2023-05-22T21:54:12.895Z,2.40
2023-05-22T21:56:39.900Z,2.10
2023-05-22T21:59:07.172Z,2.45
2023-05-22T22:01:34.516Z,2.65
2023-05-22T22:04:01.628Z,2.22
2023-05-22T22:06:28.928Z,2.80
2023-05-22T22:08:59.131Z,2.38
2023-05-22T22:11:26.689Z,2.53
2023-05-22T22:13:54.196Z,2.30
2023-05-22T22:16:22.555Z,2.50
2023-05-22T22:18:50.786Z,2.50
2023-05-22T22:21:18.098Z,3.00
2023-05-22T22:23:45.108Z,2.70
2023-05-22T22:26:15.093Z,2.83
2023-05-22T22:28:42.323Z,2.45
2023-05-22T22:31:09.312Z,2.30
2023-05-22T22:33:36.264Z,2.70
2023-05-22T22:36:03.822Z,3.08
2023-05-22T22:38:35.377Z,2.53
2023-05-22T22:41:04.903Z,3.97
2023-05-22T22:43:31.863Z,2.67
2023-05-22T22:45:58.886Z,2.53
2023-05-22T22:48:26.118Z,2.75
2023-05-22T22:50:53.483Z,2.40
2023-05-22T22:53:20.598Z,2.63
2023-05-22T22:55:48.870Z,3.00
2023-05-22T22:58:18.843Z,2.17
2023-05-22T23:00:46.058Z,2.90
2023-05-22T23:03:13.040Z,2.88
2023-05-22T23:05:40.723Z,2.65
2023-05-22T23:08:07.983Z,2.60
2023-05-22T23:10:34.925Z,3.13
2023-05-22T23:13:01.930Z,3.90
2023-05-22T23:15:29.099Z,3.78
2023-05-22T23:17:56.100Z,2.83
2023-05-22T23:20:23.168Z,3.00
2023-05-22T23:22:50.219Z,2.80
2023-05-22T23:25:17.240Z,3.70
2023-05-22T23:27:44.348Z,3.50
2023-05-22T23:30:11.754Z,3.15
2023-05-22T23:32:38.726Z,3.70
2023-05-22T23:35:06.215Z,2.58
2023-05-22T23:37:33.197Z,2.72
2023-05-22T23:40:00.279Z,2.83
2023-05-22T23:42:27.246Z,3.33
2023-05-22T23:44:54.224Z,3.17
2023-05-22T23:47:21.611Z,3.95
2023-05-22T23:49:48.757Z,2.47
2023-05-22T23:52:16.184Z,2.50
2023-05-22T23:54:43.223Z,2.53
2023-05-22T23:57:10.605Z,2.95
2023-05-22T23:59:37.670Z,3.00
